sensor_id;sensor_type;location;lat;lon;timestamp;P1;durP1;ratioP1;P2;durP2;ratioP2
75626;SDS011;67372;49.404;11.034;2023-12-28T00:02:09;8.07;;;3.83;;
75626;SDS011;67372;49.404;11.034;2023-12-28T00:04:35;9.45;;;4.40;;
75626;SDS011;67372;49.404;11.034;2023-12-28T00:07:02;9.88;;;4.50;;
75626;SDS011;67372;49.404;11.034;2023-12-28T00:09:29;8.32;;;4.47;;
75626;SDS011;67372;49.404;11.034;2023-12-28T00:11:55;9.40;;;4.40;;
75626;SDS011;67372;49.404;11.034;2023-12-28T00:14:21;8.50;;;3.85;;
75626;SDS011;67372;49.404;11.034;2023-12-28T00:16:48;9.07;;;4.50;;
75626;SDS011;67372;49.404;11.034;2023-12-28T00:19:14;10.13;;;4.60;;
75626;SDS011;67372;49.404;11.034;2023-12-28T00:21:41;10.30;;;5.28;;
75626;SDS011;67372;49.404;11.034;2023-12-28T00:24:07;10.38;;;5.13;;
75626;SDS011;67372;49.404;11.034;2023-12-28T00:26:34;9.95;;;4.88;;
75626;SDS011;67372;49.404;11.034;2023-12-28T00:29:00;7.43;;;3.63;;
75626;SDS011;67372;49.404;11.034;2023-12-28T00:31:26;7.95;;;3.78;;
75626;SDS011;67372;49.404;11.034;2023-12-28T00:33:53;8.77;;;4.30;;
75626;SDS011;67372;49.404;11.034;2023-12-28T00:36:20;8.85;;;4.30;;
75626;SDS011;67372;49.404;11.034;2023-12-28T00:38:46;7.30;;;3.55;;
75626;SDS011;67372;49.404;11.034;2023-12-28T00:41:12;7.00;;;3.17;;
75626;SDS011;67372;49.404;11.034;2023-12-28T00:43:39;7.07;;;3.17;;
75626;SDS011;67372;49.404;11.034;2023-12-28T00:46:05;5.82;;;3.13;;
75626;SDS011;67372;49.404;11.034;2023-12-28T00:48:32;7.65;;;3.70;;
75626;SDS011;67372;49.404;11.034;2023-12-28T00:50:59;5.07;;;3.03;;
75626;SDS011;67372;49.404;11.034;2023-12-28T00:53:26;6.88;;;2.70;;
75626;SDS011;67372;49.404;11.034;2023-12-28T00:55:52;8.43;;;3.80;;
75626;SDS011;67372;49.404;11.034;2023-12-28T00:58:19;6.85;;;2.88;;
75626;SDS011;67372;49.404;11.034;2023-12-28T01:00:45;6.78;;;2.92;;
75626;SDS011;67372;49.404;11.034;2023-12-28T01:03:12;6.38;;;3.15;;
75626;SDS011;67372;49.404;11.034;2023-12-28T01:05:38;5.43;;;3.15;;
75626;SDS011;67372;49.404;11.034;2023-12-28T01:08:05;5.80;;;3.40;;
75626;SDS011;67372;49.404;11.034;2023-12-28T01:10:31;8.02;;;3.42;;
75626;SDS011;67372;49.404;11.034;2023-12-28T01:12:57;4.88;;;3.05;;
75626;SDS011;67372;49.404;11.034;2023-12-28T01:15:24;5.50;;;3.30;;
75626;SDS011;67372;49.404;11.034;2023-12-28T01:17:50;6.95;;;3.22;;
75626;SDS011;67372;49.404;11.034;2023-12-28T01:20:17;5.68;;;2.60;;
75626;SDS011;67372;49.404;11.034;2023-12-28T01:22:43;6.93;;;3.22;;
75626;SDS011;67372;49.404;11.034;2023-12-28T01:25:10;6.63;;;2.97;;
75626;SDS011;67372;49.404;11.034;2023-12-28T01:27:36;5.13;;;2.47;;
75626;SDS011;67372;49.404;11.034;2023-12-28T01:30:03;5.38;;;2.42;;
75626;SDS011;67372;49.404;11.034;2023-12-28T01:32:30;5.82;;;2.75;;
75626;SDS011;67372;49.404;11.034;2023-12-28T01:34:56;4.97;;;2.47;;
75626;SDS011;67372;49.404;11.034;2023-12-28T01:37:23;5.57;;;2.50;;
75626;SDS011;67372;49.404;11.034;2023-12-28T01:39:49;4.75;;;2.75;;
75626;SDS011;67372;49.404;11.034;2023-12-28T01:42:16;3.85;;;2.28;;
75626;SDS011;67372;49.404;11.034;2023-12-28T01:44:42;5.15;;;2.65;;
75626;SDS011;67372;49.404;11.034;2023-12-28T01:47:08;5.50;;;2.50;;
75626;SDS011;67372;49.404;11.034;2023-12-28T01:49:35;6.05;;;3.03;;
75626;SDS011;67372;49.404;11.034;2023-12-28T01:52:02;5.18;;;2.88;;
75626;SDS011;67372;49.404;11.034;2023-12-28T01:54:30;5.90;;;2.83;;
75626;SDS011;67372;49.404;11.034;2023-12-28T01:56:57;4.97;;;2.80;;
75626;SDS011;67372;49.404;11.034;2023-12-28T01:59:25;6.15;;;2.85;;
75626;SDS011;67372;49.404;11.034;2023-12-28T02:01:52;6.97;;;3.10;;
75626;SDS011;67372;49.404;11.034;2023-12-28T02:04:18;6.97;;;2.90;;
75626;SDS011;67372;49.404;11.034;2023-12-28T02:06:45;5.80;;;2.70;;
75626;SDS011;67372;49.404;11.034;2023-12-28T02:09:11;3.95;;;2.55;;
75626;SDS011;67372;49.404;11.034;2023-12-28T02:11:38;4.45;;;2.88;;
75626;SDS011;67372;49.404;11.034;2023-12-28T02:14:04;5.35;;;2.90;;
75626;SDS011;67372;49.404;11.034;2023-12-28T02:16:36;5.10;;;2.65;;
75626;SDS011;67372;49.404;11.034;2023-12-28T02:22:14;5.13;;;2.22;;
75626;SDS011;67372;49.404;11.034;2023-12-28T02:30:09;6.40;;;2.88;;
75626;SDS011;67372;49.404;11.034;2023-12-28T02:37:58;4.32;;;2.35;;
75626;SDS011;67372;49.404;11.034;2023-12-28T02:40:39;5.13;;;2.67;;
75626;SDS011;67372;49.404;11.034;2023-12-28T02:43:10;5.55;;;2.50;;
75626;SDS011;67372;49.404;11.034;2023-12-28T02:45:38;5.38;;;3.15;;
75626;SDS011;67372;49.404;11.034;2023-12-28T02:48:05;6.50;;;2.85;;
75626;SDS011;67372;49.404;11.034;2023-12-28T02:50:32;5.22;;;2.58;;
75626;SDS011;67372;49.404;11.034;2023-12-28T02:52:59;6.25;;;3.03;;
75626;SDS011;67372;49.404;11.034;2023-12-28T02:55:26;4.63;;;2.60;;
75626;SDS011;67372;49.404;11.034;2023-12-28T02:57:53;8.18;;;3.42;;
75626;SDS011;67372;49.404;11.034;2023-12-28T03:00:22;5.70;;;3.33;;
75626;SDS011;67372;49.404;11.034;2023-12-28T03:02:48;6.07;;;2.90;;
75626;SDS011;67372;49.404;11.034;2023-12-28T03:05:15;4.53;;;2.35;;
75626;SDS011;67372;49.404;11.034;2023-12-28T03:07:41;6.10;;;2.90;;
75626;SDS011;67372;49.404;11.034;2023-12-28T03:10:08;3.65;;;2.38;;
75626;SDS011;67372;49.404;11.034;2023-12-28T03:12:38;6.72;;;2.83;;
75626;SDS011;67372;49.404;11.034;2023-12-28T03:15:05;5.97;;;2.53;;
75626;SDS011;67372;49.404;11.034;2023-12-28T03:17:32;6.20;;;3.10;;
75626;SDS011;67372;49.404;11.034;2023-12-28T03:19:58;4.30;;;2.53;;
75626;SDS011;67372;49.404;11.034;2023-12-28T03:22:25;4.80;;;2.55;;
75626;SDS011;67372;49.404;11.034;2023-12-28T03:24:52;5.80;;;2.70;;
75626;SDS011;67372;49.404;11.034;2023-12-28T03:27:18;6.82;;;2.72;;
75626;SDS011;67372;49.404;11.034;2023-12-28T03:29:45;6.28;;;2.83;;
75626;SDS011;67372;49.404;11.034;2023-12-28T03:32:11;4.40;;;2.85;;
75626;SDS011;67372;49.404;11.034;2023-12-28T03:34:38;4.13;;;2.17;;
75626;SDS011;67372;49.404;11.034;2023-12-28T03:37:05;4.82;;;2.90;;
75626;SDS011;67372;49.404;11.034;2023-12-28T03:39:31;3.72;;;2.38;;
75626;SDS011;67372;49.404;11.034;2023-12-28T03:41:58;5.78;;;2.75;;
75626;SDS011;67372;49.404;11.034;2023-12-28T03:44:24;5.07;;;2.70;;
75626;SDS011;67372;49.404;11.034;2023-12-28T03:46:51;5.13;;;2.70;;
75626;SDS011;67372;49.404;11.034;2023-12-28T03:49:18;3.90;;;2.60;;
75626;SDS011;67372;49.404;11.034;2023-12-28T03:54:12;7.28;;;2.70;;
75626;SDS011;67372;49.404;11.034;2023-12-28T03:56:38;5.78;;;2.63;;
75626;SDS011;67372;49.404;11.034;2023-12-28T03:59:05;5.97;;;2.80;;
75626;SDS011;67372;49.404;11.034;2023-12-28T04:01:32;5.57;;;2.60;;
75626;SDS011;67372;49.404;11.034;2023-12-28T04:03:59;4.68;;;2.53;;
75626;SDS011;67372;49.404;11.034;2023-12-28T04:06:25;4.57;;;2.47;;
75626;SDS011;67372;49.404;11.034;2023-12-28T04:08:52;6.22;;;2.67;;
75626;SDS011;67372;49.404;11.034;2023-12-28T04:11:18;5.22;;;2.75;;
75626;SDS011;67372;49.404;11.034;2023-12-28T04:13:45;5.10;;;2.70;;
75626;SDS011;67372;49.404;11.034;2023-12-28T04:16:14;5.28;;;2.50;;
75626;SDS011;67372;49.404;11.034;2023-12-28T04:18:41;5.43;;;2.92;;
75626;SDS011;67372;49.404;11.034;2023-12-28T04:21:09;5.40;;;2.53;;
75626;SDS011;67372;49.404;11.034;2023-12-28T04:23:37;6.63;;;2.85;;
75626;SDS011;67372;49.404;11.034;2023-12-28T04:26:04;6.57;;;2.60;;
75626;SDS011;67372;49.404;11.034;2023-12-28T04:28:31;4.97;;;2.63;;
75626;SDS011;67372;49.404;11.034;2023-12-28T04:30:57;4.55;;;2.70;;
75626;SDS011;67372;49.404;11.034;2023-12-28T04:33:24;3.97;;;2.78;;
75626;SDS011;67372;49.404;11.034;2023-12-28T04:35:50;3.95;;;2.33;;
75626;SDS011;67372;49.404;11.034;2023-12-28T04:38:16;5.72;;;3.00;;
75626;SDS011;67372;49.404;11.034;2023-12-28T04:40:43;4.25;;;2.40;;
75626;SDS011;67372;49.404;11.034;2023-12-28T04:43:09;4.13;;;2.35;;
75626;SDS011;67372;49.404;11.034;2023-12-28T04:45:36;6.25;;;2.55;;
75626;SDS011;67372;49.404;11.034;2023-12-28T04:48:02;5.05;;;2.08;;
75626;SDS011;67372;49.404;11.034;2023-12-28T04:50:30;5.97;;;2.90;;
75626;SDS011;67372;49.404;11.034;2023-12-28T04:52:56;5.60;;;2.30;;
75626;SDS011;67372;49.404;11.034;2023-12-28T04:55:23;3.88;;;2.28;;
75626;SDS011;67372;49.404;11.034;2023-12-28T04:57:49;4.22;;;2.58;;
75626;SDS011;67372;49.404;11.034;2023-12-28T05:00:16;5.68;;;2.50;;
75626;SDS011;67372;49.404;11.034;2023-12-28T05:02:42;4.25;;;2.40;;
75626;SDS011;67372;49.404;11.034;2023-12-28T05:05:11;4.80;;;2.13;;
75626;SDS011;67372;49.404;11.034;2023-12-28T05:07:38;4.93;;;2.58;;
75626;SDS011;67372;49.404;11.034;2023-12-28T05:10:05;3.22;;;1.83;;
75626;SDS011;67372;49.404;11.034;2023-12-28T05:12:31;5.05;;;2.53;;
75626;SDS011;67372;49.404;11.034;2023-12-28T05:15:09;5.93;;;2.40;;
75626;SDS011;67372;49.404;11.034;2023-12-28T05:17:36;4.55;;;2.67;;
75626;SDS011;67372;49.404;11.034;2023-12-28T05:20:03;3.95;;;2.42;;
75626;SDS011;67372;49.404;11.034;2023-12-28T05:22:29;7.35;;;2.83;;
75626;SDS011;67372;49.404;11.034;2023-12-28T05:24:56;5.03;;;2.78;;
75626;SDS011;67372;49.404;11.034;2023-12-28T05:27:22;7.22;;;2.75;;
75626;SDS011;67372;49.404;11.034;2023-12-28T05:29:49;3.97;;;2.33;;
75626;SDS011;67372;49.404;11.034;2023-12-28T05:32:15;5.00;;;2.38;;
75626;SDS011;67372;49.404;11.034;2023-12-28T05:34:41;3.97;;;2.42;;
75626;SDS011;67372;49.404;11.034;2023-12-28T05:37:08;5.68;;;2.45;;
75626;SDS011;67372;49.404;11.034;2023-12-28T05:39:34;5.15;;;2.38;;
75626;SDS011;67372;49.404;11.034;2023-12-28T05:42:01;4.30;;;2.35;;
75626;SDS011;67372;49.404;11.034;2023-12-28T05:44:27;3.25;;;2.33;;
75626;SDS011;67372;49.404;11.034;2023-12-28T05:46:53;5.82;;;2.70;;
75626;SDS011;67372;49.404;11.034;2023-12-28T05:49:20;3.97;;;2.55;;
75626;SDS011;67372;49.404;11.034;2023-12-28T05:51:46;5.60;;;2.92;;
75626;SDS011;67372;49.404;11.034;2023-12-28T05:54:13;5.25;;;2.83;;
75626;SDS011;67372;49.404;11.034;2023-12-28T05:56:39;4.85;;;2.45;;
75626;SDS011;67372;49.404;11.034;2023-12-28T05:59:05;4.32;;;2.50;;
75626;SDS011;67372;49.404;11.034;2023-12-28T06:01:32;4.82;;;2.78;;
75626;SDS011;67372;49.404;11.034;2023-12-28T06:03:58;4.30;;;2.40;;
75626;SDS011;67372;49.404;11.034;2023-12-28T06:06:25;4.20;;;2.53;;
75626;SDS011;67372;49.404;11.034;2023-12-28T06:08:51;5.15;;;2.85;;
75626;SDS011;67372;49.404;11.034;2023-12-28T06:11:18;4.43;;;2.75;;
75626;SDS011;67372;49.404;11.034;2023-12-28T06:13:44;6.15;;;3.05;;
75626;SDS011;67372;49.404;11.034;2023-12-28T06:16:10;5.63;;;2.80;;
75626;SDS011;67372;49.404;11.034;2023-12-28T06:18:37;5.75;;;2.88;;
75626;SDS011;67372;49.404;11.034;2023-12-28T06:21:03;7.40;;;3.58;;
75626;SDS011;67372;49.404;11.034;2023-12-28T06:23:30;9.32;;;3.80;;
75626;SDS011;67372;49.404;11.034;2023-12-28T06:25:56;7.18;;;3.55;;
75626;SDS011;67372;49.404;11.034;2023-12-28T06:28:23;5.32;;;3.10;;
75626;SDS011;67372;49.404;11.034;2023-12-28T06:30:49;5.70;;;2.72;;
75626;SDS011;67372;49.404;11.034;2023-12-28T06:33:15;6.30;;;3.13;;
75626;SDS011;67372;49.404;11.034;2023-12-28T06:35:42;6.50;;;3.47;;
75626;SDS011;67372;49.404;11.034;2023-12-28T06:38:08;5.20;;;2.97;;
75626;SDS011;67372;49.404;11.034;2023-12-28T06:40:35;5.60;;;2.67;;
75626;SDS011;67372;49.404;11.034;2023-12-28T06:43:01;6.30;;;3.22;;
75626;SDS011;67372;49.404;11.034;2023-12-28T06:45:27;6.13;;;3.22;;
75626;SDS011;67372;49.404;11.034;2023-12-28T06:47:54;5.32;;;2.80;;
75626;SDS011;67372;49.404;11.034;2023-12-28T06:50:21;4.50;;;2.63;;
75626;SDS011;67372;49.404;11.034;2023-12-28T06:52:47;6.22;;;2.80;;
75626;SDS011;67372;49.404;11.034;2023-12-28T06:55:14;5.25;;;2.72;;
75626;SDS011;67372;49.404;11.034;2023-12-28T06:57:40;5.78;;;2.70;;
75626;SDS011;67372;49.404;11.034;2023-12-28T07:00:07;4.30;;;2.63;;
75626;SDS011;67372;49.404;11.034;2023-12-28T07:02:34;6.50;;;3.22;;
75626;SDS011;67372;49.404;11.034;2023-12-28T07:05:00;5.00;;;3.03;;
75626;SDS011;67372;49.404;11.034;2023-12-28T07:07:26;6.95;;;3.15;;
75626;SDS011;67372;49.404;11.034;2023-12-28T07:09:53;5.28;;;3.03;;
75626;SDS011;67372;49.404;11.034;2023-12-28T07:12:19;4.80;;;3.00;;
75626;SDS011;67372;49.404;11.034;2023-12-28T07:14:46;5.53;;;3.10;;
75626;SDS011;67372;49.404;11.034;2023-12-28T07:17:12;6.43;;;2.88;;
75626;SDS011;67372;49.404;11.034;2023-12-28T07:19:38;7.38;;;3.40;;
75626;SDS011;67372;49.404;11.034;2023-12-28T07:22:05;6.15;;;3.10;;
75626;SDS011;67372;49.404;11.034;2023-12-28T07:24:31;7.45;;;3.35;;
75626;SDS011;67372;49.404;11.034;2023-12-28T07:26:58;6.50;;;3.30;;
75626;SDS011;67372;49.404;11.034;2023-12-28T07:29:24;7.30;;;3.38;;
75626;SDS011;67372;49.404;11.034;2023-12-28T07:31:53;5.72;;;3.50;;
75626;SDS011;67372;49.404;11.034;2023-12-28T07:34:19;6.25;;;3.67;;
75626;SDS011;67372;49.404;11.034;2023-12-28T07:36:46;7.68;;;4.40;;
75626;SDS011;67372;49.404;11.034;2023-12-28T07:39:12;6.03;;;3.15;;
75626;SDS011;67372;49.404;11.034;2023-12-28T07:41:39;8.32;;;4.38;;
75626;SDS011;67372;49.404;11.034;2023-12-28T07:44:05;6.35;;;3.22;;
75626;SDS011;67372;49.404;11.034;2023-12-28T07:46:31;6.40;;;3.50;;
75626;SDS011;67372;49.404;11.034;2023-12-28T07:48:58;7.05;;;3.83;;
75626;SDS011;67372;49.404;11.034;2023-12-28T07:51:24;5.57;;;3.63;;
75626;SDS011;67372;49.404;11.034;2023-12-28T07:53:51;7.95;;;4.30;;
75626;SDS011;67372;49.404;11.034;2023-12-28T07:56:17;6.80;;;3.50;;
75626;SDS011;67372;49.404;11.034;2023-12-28T07:58:43;8.40;;;3.90;;
75626;SDS011;67372;49.404;11.034;2023-12-28T08:01:11;7.65;;;3.58;;
75626;SDS011;67372;49.404;11.034;2023-12-28T08:03:38;7.07;;;3.80;;
75626;SDS011;67372;49.404;11.034;2023-12-28T08:06:04;6.20;;;4.00;;
75626;SDS011;67372;49.404;11.034;2023-12-28T08:08:31;5.78;;;3.53;;
75626;SDS011;67372;49.404;11.034;2023-12-28T08:10:58;6.82;;;3.58;;
75626;SDS011;67372;49.404;11.034;2023-12-28T08:13:24;8.68;;;3.40;;
75626;SDS011;67372;49.404;11.034;2023-12-28T08:15:50;6.95;;;3.47;;
75626;SDS011;67372;49.404;11.034;2023-12-28T08:18:17;5.75;;;3.20;;
75626;SDS011;67372;49.404;11.034;2023-12-28T08:20:44;5.55;;;3.83;;
75626;SDS011;67372;49.404;11.034;2023-12-28T08:23:10;5.88;;;3.70;;
75626;SDS011;67372;49.404;11.034;2023-12-28T08:25:43;6.22;;;3.58;;
75626;SDS011;67372;49.404;11.034;2023-12-28T08:28:11;6.63;;;3.55;;
75626;SDS011;67372;49.404;11.034;2023-12-28T08:30:38;6.38;;;3.35;;
75626;SDS011;67372;49.404;11.034;2023-12-28T08:33:04;4.28;;;3.00;;
75626;SDS011;67372;49.404;11.034;2023-12-28T08:35:31;6.72;;;3.42;;
75626;SDS011;67372;49.404;11.034;2023-12-28T08:37:57;6.45;;;2.92;;
75626;SDS011;67372;49.404;11.034;2023-12-28T08:40:24;5.68;;;3.38;;
75626;SDS011;67372;49.404;11.034;2023-12-28T08:42:51;6.35;;;3.40;;
75626;SDS011;67372;49.404;11.034;2023-12-28T08:45:17;6.45;;;3.58;;
75626;SDS011;67372;49.404;11.034;2023-12-28T08:47:44;7.78;;;3.75;;
75626;SDS011;67372;49.404;11.034;2023-12-28T08:50:10;7.80;;;4.45;;
75626;SDS011;67372;49.404;11.034;2023-12-28T08:52:37;9.10;;;4.43;;
75626;SDS011;67372;49.404;11.034;2023-12-28T08:55:04;5.05;;;3.42;;
75626;SDS011;67372;49.404;11.034;2023-12-28T08:57:31;7.15;;;3.58;;
75626;SDS011;67372;49.404;11.034;2023-12-28T09:00:08;5.78;;;3.47;;
75626;SDS011;67372;49.404;11.034;2023-12-28T09:02:35;6.15;;;3.60;;
75626;SDS011;67372;49.404;11.034;2023-12-28T09:05:01;5.40;;;3.15;;
75626;SDS011;67372;49.404;11.034;2023-12-28T09:07:28;5.40;;;3.47;;
75626;SDS011;67372;49.404;11.034;2023-12-28T09:09:55;5.45;;;3.00;;
75626;SDS011;67372;49.404;11.034;2023-12-28T09:12:21;7.10;;;3.67;;
75626;SDS011;67372;49.404;11.034;2023-12-28T09:14:48;6.43;;;3.25;;
75626;SDS011;67372;49.404;11.034;2023-12-28T09:17:14;7.75;;;3.58;;
75626;SDS011;67372;49.404;11.034;2023-12-28T09:19:41;6.43;;;3.55;;
75626;SDS011;67372;49.404;11.034;2023-12-28T09:22:07;5.30;;;3.42;;
75626;SDS011;67372;49.404;11.034;2023-12-28T09:24:33;7.15;;;3.50;;
75626;SDS011;67372;49.404;11.034;2023-12-28T09:27:00;9.18;;;3.50;;
75626;SDS011;67372;49.404;11.034;2023-12-28T09:29:26;6.53;;;3.50;;
75626;SDS011;67372;49.404;11.034;2023-12-28T09:31:53;6.00;;;3.45;;
75626;SDS011;67372;49.404;11.034;2023-12-28T09:34:20;6.70;;;3.53;;
75626;SDS011;67372;49.404;11.034;2023-12-28T09:36:47;7.40;;;3.65;;
75626;SDS011;67372;49.404;11.034;2023-12-28T09:39:13;7.22;;;3.85;;
75626;SDS011;67372;49.404;11.034;2023-12-28T09:41:40;6.30;;;3.58;;
75626;SDS011;67372;49.404;11.034;2023-12-28T09:44:15;7.45;;;4.07;;
75626;SDS011;67372;49.404;11.034;2023-12-28T09:46:43;5.75;;;3.70;;
75626;SDS011;67372;49.404;11.034;2023-12-28T09:49:11;6.50;;;3.55;;
75626;SDS011;67372;49.404;11.034;2023-12-28T09:51:37;6.57;;;3.92;;
75626;SDS011;67372;49.404;11.034;2023-12-28T09:54:04;7.72;;;4.35;;
75626;SDS011;67372;49.404;11.034;2023-12-28T09:56:33;6.20;;;3.47;;
75626;SDS011;67372;49.404;11.034;2023-12-28T09:59:00;7.05;;;3.80;;
75626;SDS011;67372;49.404;11.034;2023-12-28T10:01:28;8.60;;;4.40;;
75626;SDS011;67372;49.404;11.034;2023-12-28T10:03:55;7.00;;;4.05;;
75626;SDS011;67372;49.404;11.034;2023-12-28T10:06:21;8.82;;;4.07;;
75626;SDS011;67372;49.404;11.034;2023-12-28T10:08:48;8.68;;;4.35;;
75626;SDS011;67372;49.404;11.034;2023-12-28T10:11:15;7.25;;;4.60;;
75626;SDS011;67372;49.404;11.034;2023-12-28T10:13:43;9.10;;;4.88;;
75626;SDS011;67372;49.404;11.034;2023-12-28T10:16:09;9.65;;;5.65;;
75626;SDS011;67372;49.404;11.034;2023-12-28T10:18:43;15.85;;;7.43;;
75626;SDS011;67372;49.404;11.034;2023-12-28T10:21:11;15.90;;;7.47;;
75626;SDS011;67372;49.404;11.034;2023-12-28T10:23:38;27.13;;;11.85;;
75626;SDS011;67372;49.404;11.034;2023-12-28T10:26:05;27.80;;;13.73;;
75626;SDS011;67372;49.404;11.034;2023-12-28T10:28:32;26.65;;;12.52;;
75626;SDS011;67372;49.404;11.034;2023-12-28T10:30:58;22.17;;;11.85;;
75626;SDS011;67372;49.404;11.034;2023-12-28T10:33:25;18.85;;;10.15;;
75626;SDS011;67372;49.404;11.034;2023-12-28T10:35:52;12.30;;;6.03;;
75626;SDS011;67372;49.404;11.034;2023-12-28T10:38:23;7.93;;;3.88;;
75626;SDS011;67372;49.404;11.034;2023-12-28T10:40:54;5.63;;;3.65;;
75626;SDS011;67372;49.404;11.034;2023-12-28T10:43:20;7.63;;;3.70;;
75626;SDS011;67372;49.404;11.034;2023-12-28T10:45:50;7.88;;;4.03;;
75626;SDS011;67372;49.404;11.034;2023-12-28T10:48:19;8.75;;;4.35;;
75626;SDS011;67372;49.404;11.034;2023-12-28T10:50:54;8.95;;;5.15;;
75626;SDS011;67372;49.404;11.034;2023-12-28T10:53:30;9.25;;;5.22;;
75626;SDS011;67372;49.404;11.034;2023-12-28T10:56:14;9.60;;;5.18;;
75626;SDS011;67372;49.404;11.034;2023-12-28T11:01:35;10.18;;;5.22;;
75626;SDS011;67372;49.404;11.034;2023-12-28T11:06:53;10.23;;;5.72;;
75626;SDS011;67372;49.404;11.034;2023-12-28T11:09:21;13.18;;;5.72;;
75626;SDS011;67372;49.404;11.034;2023-12-28T11:11:50;10.15;;;5.97;;
75626;SDS011;67372;49.404;11.034;2023-12-28T11:14:17;10.82;;;5.57;;
75626;SDS011;67372;49.404;11.034;2023-12-28T11:16:44;10.70;;;6.00;;
75626;SDS011;67372;49.404;11.034;2023-12-28T11:19:10;11.23;;;5.90;;
75626;SDS011;67372;49.404;11.034;2023-12-28T11:21:38;10.05;;;5.50;;
75626;SDS011;67372;49.404;11.034;2023-12-28T11:24:05;10.10;;;5.78;;
75626;SDS011;67372;49.404;11.034;2023-12-28T11:26:32;13.20;;;6.28;;
75626;SDS011;67372;49.404;11.034;2023-12-28T11:29:02;8.43;;;5.03;;
75626;SDS011;67372;49.404;11.034;2023-12-28T11:31:32;8.80;;;5.03;;
75626;SDS011;67372;49.404;11.034;2023-12-28T11:34:00;8.85;;;5.22;;
75626;SDS011;67372;49.404;11.034;2023-12-28T11:36:34;12.13;;;6.68;;
75626;SDS011;67372;49.404;11.034;2023-12-28T11:39:03;9.88;;;5.95;;
75626;SDS011;67372;49.404;11.034;2023-12-28T11:41:32;9.52;;;5.95;;
75626;SDS011;67372;49.404;11.034;2023-12-28T11:44:03;9.20;;;5.25;;
75626;SDS011;67372;49.404;11.034;2023-12-28T11:46:30;9.68;;;5.10;;
75626;SDS011;67372;49.404;11.034;2023-12-28T11:49:03;6.82;;;3.90;;
75626;SDS011;67372;49.404;11.034;2023-12-28T11:51:35;6.25;;;4.00;;
75626;SDS011;67372;49.404;11.034;2023-12-28T11:54:04;7.60;;;4.03;;
75626;SDS011;67372;49.404;11.034;2023-12-28T11:56:31;10.80;;;5.20;;
75626;SDS011;67372;49.404;11.034;2023-12-28T11:58:57;15.63;;;7.40;;
75626;SDS011;67372;49.404;11.034;2023-12-28T12:01:24;8.18;;;4.65;;
75626;SDS011;67372;49.404;11.034;2023-12-28T12:03:51;6.82;;;4.07;;
75626;SDS011;67372;49.404;11.034;2023-12-28T12:06:18;9.05;;;4.20;;
75626;SDS011;67372;49.404;11.034;2023-12-28T12:08:46;7.13;;;3.70;;
75626;SDS011;67372;49.404;11.034;2023-12-28T12:11:12;7.78;;;4.47;;
75626;SDS011;67372;49.404;11.034;2023-12-28T12:13:39;7.72;;;4.53;;
75626;SDS011;67372;49.404;11.034;2023-12-28T12:16:05;7.70;;;4.53;;
75626;SDS011;67372;49.404;11.034;2023-12-28T12:21:00;14.38;;;6.93;;
75626;SDS011;67372;49.404;11.034;2023-12-28T12:23:27;36.63;;;19.65;;
75626;SDS011;67372;49.404;11.034;2023-12-28T12:25:53;23.00;;;13.60;;
75626;SDS011;67372;49.404;11.034;2023-12-28T12:28:20;19.13;;;10.88;;
75626;SDS011;67372;49.404;11.034;2023-12-28T12:30:53;22.23;;;11.13;;
75626;SDS011;67372;49.404;11.034;2023-12-28T12:33:20;12.27;;;6.35;;
75626;SDS011;67372;49.404;11.034;2023-12-28T12:35:48;16.27;;;8.60;;
75626;SDS011;67372;49.404;11.034;2023-12-28T12:38:15;13.38;;;6.97;;
75626;SDS011;67372;49.404;11.034;2023-12-28T12:40:42;11.30;;;6.55;;
75626;SDS011;67372;49.404;11.034;2023-12-28T12:43:08;10.25;;;5.88;;
75626;SDS011;67372;49.404;11.034;2023-12-28T12:45:36;8.48;;;4.75;;
75626;SDS011;67372;49.404;11.034;2023-12-28T12:48:03;7.07;;;4.15;;
75626;SDS011;67372;49.404;11.034;2023-12-28T12:50:31;7.18;;;4.13;;
75626;SDS011;67372;49.404;11.034;2023-12-28T12:52:59;8.13;;;4.70;;
75626;SDS011;67372;49.404;11.034;2023-12-28T12:55:26;9.98;;;5.00;;
75626;SDS011;67372;49.404;11.034;2023-12-28T12:57:52;8.75;;;5.03;;
75626;SDS011;67372;49.404;11.034;2023-12-28T13:00:19;9.00;;;4.95;;
75626;SDS011;67372;49.404;11.034;2023-12-28T13:02:45;9.07;;;5.40;;
75626;SDS011;67372;49.404;11.034;2023-12-28T13:05:11;8.95;;;5.10;;
75626;SDS011;67372;49.404;11.034;2023-12-28T13:07:38;10.95;;;5.65;;
75626;SDS011;67372;49.404;11.034;2023-12-28T13:10:04;10.18;;;6.28;;
75626;SDS011;67372;49.404;11.034;2023-12-28T13:12:31;12.20;;;5.80;;
75626;SDS011;67372;49.404;11.034;2023-12-28T13:14:58;15.25;;;6.97;;
75626;SDS011;67372;49.404;11.034;2023-12-28T13:17:24;11.98;;;5.93;;
75626;SDS011;67372;49.404;11.034;2023-12-28T13:19:51;12.82;;;6.40;;
75626;SDS011;67372;49.404;11.034;2023-12-28T13:22:18;11.07;;;5.97;;
75626;SDS011;67372;49.404;11.034;2023-12-28T13:24:45;11.75;;;5.78;;
75626;SDS011;67372;49.404;11.034;2023-12-28T13:27:11;13.27;;;5.88;;
75626;SDS011;67372;49.404;11.034;2023-12-28T13:29:37;10.15;;;5.65;;
75626;SDS011;67372;49.404;11.034;2023-12-28T13:32:04;9.77;;;5.38;;
75626;SDS011;67372;49.404;11.034;2023-12-28T13:34:31;9.32;;;4.60;;
75626;SDS011;67372;49.404;11.034;2023-12-28T13:36:57;7.82;;;4.43;;
75626;SDS011;67372;49.404;11.034;2023-12-28T13:39:24;8.38;;;5.05;;
75626;SDS011;67372;49.404;11.034;2023-12-28T13:41:50;9.35;;;4.88;;
75626;SDS011;67372;49.404;11.034;2023-12-28T13:44:16;7.30;;;4.57;;
75626;SDS011;67372;49.404;11.034;2023-12-28T13:46:43;9.55;;;4.82;;
75626;SDS011;67372;49.404;11.034;2023-12-28T13:49:09;8.55;;;4.55;;
75626;SDS011;67372;49.404;11.034;2023-12-28T13:51:36;8.13;;;4.68;;
75626;SDS011;67372;49.404;11.034;2023-12-28T13:54:02;9.18;;;5.15;;
75626;SDS011;67372;49.404;11.034;2023-12-28T13:56:31;8.70;;;4.70;;
75626;SDS011;67372;49.404;11.034;2023-12-28T13:58:58;8.85;;;4.93;;
75626;SDS011;67372;49.404;11.034;2023-12-28T14:01:25;9.65;;;4.70;;
75626;SDS011;67372;49.404;11.034;2023-12-28T14:03:52;8.65;;;4.88;;
75626;SDS011;67372;49.404;11.034;2023-12-28T14:06:18;9.05;;;5.10;;
75626;SDS011;67372;49.404;11.034;2023-12-28T14:08:45;9.30;;;4.88;;
75626;SDS011;67372;49.404;11.034;2023-12-28T14:11:11;8.35;;;4.95;;
75626;SDS011;67372;49.404;11.034;2023-12-28T14:13:38;8.50;;;5.93;;
75626;SDS011;67372;49.404;11.034;2023-12-28T14:16:04;10.23;;;5.45;;
75626;SDS011;67372;49.404;11.034;2023-12-28T14:18:31;9.63;;;5.50;;
75626;SDS011;67372;49.404;11.034;2023-12-28T14:20:57;8.95;;;5.30;;
75626;SDS011;67372;49.404;11.034;2023-12-28T14:23:24;9.25;;;5.43;;
75626;SDS011;67372;49.404;11.034;2023-12-28T14:25:51;9.73;;;5.70;;
75626;SDS011;67372;49.404;11.034;2023-12-28T14:28:17;9.32;;;5.55;;
75626;SDS011;67372;49.404;11.034;2023-12-28T14:30:44;10.15;;;5.40;;
75626;SDS011;67372;49.404;11.034;2023-12-28T14:33:11;10.75;;;5.32;;
75626;SDS011;67372;49.404;11.034;2023-12-28T14:35:37;8.85;;;4.97;;
75626;SDS011;67372;49.404;11.034;2023-12-28T14:38:07;9.48;;;5.20;;
75626;SDS011;67372;49.404;11.034;2023-12-28T14:40:33;8.77;;;4.70;;
75626;SDS011;67372;49.404;11.034;2023-12-28T14:43:00;9.10;;;5.20;;
75626;SDS011;67372;49.404;11.034;2023-12-28T14:45:27;8.23;;;4.95;;
75626;SDS011;67372;49.404;11.034;2023-12-28T14:47:53;8.40;;;4.88;;
75626;SDS011;67372;49.404;11.034;2023-12-28T14:50:19;9.60;;;4.75;;
75626;SDS011;67372;49.404;11.034;2023-12-28T14:52:46;9.07;;;5.65;;
75626;SDS011;67372;49.404;11.034;2023-12-28T14:55:12;11.07;;;6.07;;
75626;SDS011;67372;49.404;11.034;2023-12-28T14:57:39;11.63;;;6.32;;